sensor_id;sensor_type;location;lat;lon;timestamp;P1;durP1;ratioP1;P2;durP2;ratioP2
59263;SDS011;45030;42.720;23.344;2023-06-01T00:01:31;9.68;;;5.20;;
59263;SDS011;45030;42.720;23.344;2023-06-01T00:04:00;9.45;;;5.07;;
59263;SDS011;45030;42.720;23.344;2023-06-01T00:06:26;7.40;;;4.65;;
59263;SDS011;45030;42.720;23.344;2023-06-01T00:08:53;9.93;;;5.13;;
59263;SDS011;45030;42.720;23.344;2023-06-01T00:11:19;9.98;;;5.50;;
59263;SDS011;45030;42.720;23.344;2023-06-01T00:13:45;9.52;;;4.72;;
59263;SDS011;45030;42.720;23.344;2023-06-01T00:16:10;8.50;;;4.47;;
59263;SDS011;45030;42.720;23.344;2023-06-01T00:18:37;12.82;;;5.88;;
59263;SDS011;45030;42.720;23.344;2023-06-01T00:21:02;12.60;;;4.90;;
59263;SDS011;45030;42.720;23.344;2023-06-01T00:23:27;11.60;;;5.13;;
59263;SDS011;45030;42.720;23.344;2023-06-01T00:25:53;12.27;;;7.35;;
59263;SDS011;45030;42.720;23.344;2023-06-01T00:28:18;15.02;;;7.10;;
59263;SDS011;45030;42.720;23.344;2023-06-01T00:30:43;14.57;;;7.43;;
59263;SDS011;45030;42.720;23.344;2023-06-01T00:33:09;13.23;;;6.82;;
59263;SDS011;45030;42.720;23.344;2023-06-01T00:35:34;13.18;;;6.65;;
59263;SDS011;45030;42.720;23.344;2023-06-01T00:38:00;16.65;;;8.13;;
59263;SDS011;45030;42.720;23.344;2023-06-01T00:40:25;15.98;;;8.50;;
59263;SDS011;45030;42.720;23.344;2023-06-01T00:42:50;17.75;;;8.82;;
59263;SDS011;45030;42.720;23.344;2023-06-01T00:45:16;26.33;;;9.10;;
59263;SDS011;45030;42.720;23.344;2023-06-01T00:47:41;13.25;;;5.78;;
59263;SDS011;45030;42.720;23.344;2023-06-01T00:50:08;14.25;;;5.32;;
59263;SDS011;45030;42.720;23.344;2023-06-01T00:52:33;11.82;;;6.07;;
59263;SDS011;45030;42.720;23.344;2023-06-01T00:54:59;10.75;;;5.40;;
59263;SDS011;45030;42.720;23.344;2023-06-01T00:57:24;10.18;;;5.18;;
59263;SDS011;45030;42.720;23.344;2023-06-01T00:59:51;8.23;;;5.07;;
59263;SDS011;45030;42.720;23.344;2023-06-01T01:02:17;7.88;;;4.57;;
59263;SDS011;45030;42.720;23.344;2023-06-01T01:04:43;10.60;;;5.65;;
59263;SDS011;45030;42.720;23.344;2023-06-01T01:07:11;10.77;;;6.32;;
59263;SDS011;45030;42.720;23.344;2023-06-01T01:09:48;15.15;;;7.20;;
59263;SDS011;45030;42.720;23.344;2023-06-01T01:12:17;15.48;;;7.38;;
59263;SDS011;45030;42.720;23.344;2023-06-01T01:14:50;16.05;;;7.97;;
59263;SDS011;45030;42.720;23.344;2023-06-01T01:17:22;16.60;;;7.93;;
59263;SDS011;45030;42.720;23.344;2023-06-01T01:25:02;22.47;;;10.27;;
59263;SDS011;45030;42.720;23.344;2023-06-01T01:27:42;54.72;;;12.95;;
59263;SDS011;45030;42.720;23.344;2023-06-01T01:30:09;19.60;;;10.25;;
59263;SDS011;45030;42.720;23.344;2023-06-01T01:32:35;11.95;;;6.43;;
59263;SDS011;45030;42.720;23.344;2023-06-01T01:35:02;13.27;;;6.60;;
59263;SDS011;45030;42.720;23.344;2023-06-01T01:37:29;15.38;;;6.55;;
59263;SDS011;45030;42.720;23.344;2023-06-01T01:39:54;23.15;;;6.93;;
59263;SDS011;45030;42.720;23.344;2023-06-01T01:42:19;22.80;;;6.68;;
59263;SDS011;45030;42.720;23.344;2023-06-01T01:44:45;21.52;;;7.20;;
59263;SDS011;45030;42.720;23.344;2023-06-01T01:49:40;17.48;;;6.82;;
59263;SDS011;45030;42.720;23.344;2023-06-01T01:52:17;24.17;;;7.03;;
59263;SDS011;45030;42.720;23.344;2023-06-01T01:54:44;23.77;;;9.18;;
59263;SDS011;45030;42.720;23.344;2023-06-01T01:57:09;25.13;;;9.82;;
59263;SDS011;45030;42.720;23.344;2023-06-01T01:59:36;21.38;;;6.88;;
59263;SDS011;45030;42.720;23.344;2023-06-01T02:02:02;17.85;;;7.30;;
59263;SDS011;45030;42.720;23.344;2023-06-01T02:04:27;16.27;;;8.80;;
59263;SDS011;45030;42.720;23.344;2023-06-01T02:06:53;27.65;;;9.70;;
59263;SDS011;45030;42.720;23.344;2023-06-01T02:09:18;16.50;;;8.30;;
59263;SDS011;45030;42.720;23.344;2023-06-01T02:11:43;18.67;;;8.98;;
59263;SDS011;45030;42.720;23.344;2023-06-01T02:14:09;19.42;;;8.43;;
59263;SDS011;45030;42.720;23.344;2023-06-01T02:16:34;17.30;;;8.70;;
59263;SDS011;45030;42.720;23.344;2023-06-01T02:18:59;20.75;;;8.20;;
59263;SDS011;45030;42.720;23.344;2023-06-01T02:21:25;17.45;;;7.95;;
59263;SDS011;45030;42.720;23.344;2023-06-01T02:23:50;19.48;;;8.10;;
59263;SDS011;45030;42.720;23.344;2023-06-01T02:26:16;15.70;;;7.07;;
59263;SDS011;45030;42.720;23.344;2023-06-01T02:28:41;20.55;;;9.95;;
59263;SDS011;45030;42.720;23.344;2023-06-01T02:31:07;14.60;;;6.40;;
59263;SDS011;45030;42.720;23.344;2023-06-01T02:33:33;13.50;;;5.85;;
59263;SDS011;45030;42.720;23.344;2023-06-01T02:35:58;11.45;;;5.45;;
59263;SDS011;45030;42.720;23.344;2023-06-01T02:38:24;10.35;;;5.78;;
59263;SDS011;45030;42.720;23.344;2023-06-01T02:40:49;12.70;;;6.25;;
59263;SDS011;45030;42.720;23.344;2023-06-01T02:43:14;12.13;;;6.45;;
59263;SDS011;45030;42.720;23.344;2023-06-01T02:45:40;15.70;;;6.50;;
59263;SDS011;45030;42.720;23.344;2023-06-01T02:48:05;13.25;;;5.72;;
59263;SDS011;45030;42.720;23.344;2023-06-01T02:50:30;14.27;;;6.35;;
59263;SDS011;45030;42.720;23.344;2023-06-01T02:52:55;13.98;;;6.35;;
59263;SDS011;45030;42.720;23.344;2023-06-01T02:55:21;14.20;;;7.30;;
59263;SDS011;45030;42.720;23.344;2023-06-01T02:57:46;21.48;;;7.28;;
59263;SDS011;45030;42.720;23.344;2023-06-01T03:00:11;14.15;;;7.40;;
59263;SDS011;45030;42.720;23.344;2023-06-01T03:02:41;13.95;;;6.85;;
59263;SDS011;45030;42.720;23.344;2023-06-01T03:05:06;12.40;;;6.93;;
59263;SDS011;45030;42.720;23.344;2023-06-01T03:07:32;13.18;;;7.38;;
59263;SDS011;45030;42.720;23.344;2023-06-01T03:09:58;13.63;;;6.57;;
59263;SDS011;45030;42.720;23.344;2023-06-01T03:12:23;14.02;;;6.35;;
59263;SDS011;45030;42.720;23.344;2023-06-01T03:14:48;12.25;;;7.07;;
59263;SDS011;45030;42.720;23.344;2023-06-01T03:17:13;13.27;;;6.47;;
59263;SDS011;45030;42.720;23.344;2023-06-01T03:19:39;15.30;;;6.20;;
59263;SDS011;45030;42.720;23.344;2023-06-01T03:22:04;11.35;;;6.07;;
59263;SDS011;45030;42.720;23.344;2023-06-01T03:24:29;13.93;;;7.13;;
59263;SDS011;45030;42.720;23.344;2023-06-01T03:26:55;12.88;;;6.45;;
59263;SDS011;45030;42.720;23.344;2023-06-01T03:29:20;12.77;;;6.82;;
59263;SDS011;45030;42.720;23.344;2023-06-01T03:31:46;12.30;;;6.20;;
59263;SDS011;45030;42.720;23.344;2023-06-01T03:34:11;14.02;;;6.85;;
59263;SDS011;45030;42.720;23.344;2023-06-01T03:36:36;12.98;;;6.40;;
59263;SDS011;45030;42.720;23.344;2023-06-01T03:39:02;21.67;;;8.25;;
59263;SDS011;45030;42.720;23.344;2023-06-01T03:41:33;13.82;;;8.82;;
59263;SDS011;45030;42.720;23.344;2023-06-01T03:43:58;15.00;;;8.45;;
59263;SDS011;45030;42.720;23.344;2023-06-01T03:46:23;12.15;;;6.63;;
59263;SDS011;45030;42.720;23.344;2023-06-01T03:48:48;12.55;;;5.63;;
59263;SDS011;45030;42.720;23.344;2023-06-01T03:51:15;15.38;;;7.60;;
59263;SDS011;45030;42.720;23.344;2023-06-01T03:53:41;17.33;;;8.10;;
59263;SDS011;45030;42.720;23.344;2023-06-01T03:56:06;19.25;;;8.30;;
59263;SDS011;45030;42.720;23.344;2023-06-01T03:58:31;20.23;;;8.32;;
59263;SDS011;45030;42.720;23.344;2023-06-01T04:00:57;17.27;;;8.15;;
59263;SDS011;45030;42.720;23.344;2023-06-01T04:03:22;13.48;;;6.57;;
59263;SDS011;45030;42.720;23.344;2023-06-01T04:05:48;13.65;;;6.93;;
59263;SDS011;45030;42.720;23.344;2023-06-01T04:08:16;11.48;;;5.82;;
59263;SDS011;45030;42.720;23.344;2023-06-01T04:10:42;12.95;;;6.53;;
59263;SDS011;45030;42.720;23.344;2023-06-01T04:13:07;13.90;;;7.00;;
59263;SDS011;45030;42.720;23.344;2023-06-01T04:15:32;13.93;;;6.78;;
59263;SDS011;45030;42.720;23.344;2023-06-01T04:17:58;12.07;;;6.85;;
59263;SDS011;45030;42.720;23.344;2023-06-01T04:20:23;16.58;;;8.82;;
59263;SDS011;45030;42.720;23.344;2023-06-01T04:22:48;19.45;;;8.48;;
59263;SDS011;45030;42.720;23.344;2023-06-01T04:25:14;14.18;;;7.30;;
59263;SDS011;45030;42.720;23.344;2023-06-01T04:27:43;15.30;;;6.13;;
59263;SDS011;45030;42.720;23.344;2023-06-01T04:30:10;13.10;;;6.28;;
59263;SDS011;45030;42.720;23.344;2023-06-01T04:32:35;15.80;;;7.93;;
59263;SDS011;45030;42.720;23.344;2023-06-01T04:35:02;14.77;;;8.02;;
59263;SDS011;45030;42.720;23.344;2023-06-01T04:37:30;15.13;;;7.75;;
59263;SDS011;45030;42.720;23.344;2023-06-01T04:39:55;13.93;;;7.57;;
59263;SDS011;45030;42.720;23.344;2023-06-01T04:42:21;18.58;;;8.73;;
59263;SDS011;45030;42.720;23.344;2023-06-01T04:44:46;15.18;;;8.20;;
59263;SDS011;45030;42.720;23.344;2023-06-01T04:47:15;17.15;;;8.20;;
59263;SDS011;45030;42.720;23.344;2023-06-01T04:49:41;17.10;;;8.38;;
59263;SDS011;45030;42.720;23.344;2023-06-01T04:52:07;18.38;;;8.75;;
59263;SDS011;45030;42.720;23.344;2023-06-01T04:54:32;17.95;;;7.97;;
59263;SDS011;45030;42.720;23.344;2023-06-01T04:56:58;20.42;;;9.48;;
59263;SDS011;45030;42.720;23.344;2023-06-01T04:59:23;22.75;;;9.43;;
59263;SDS011;45030;42.720;23.344;2023-06-01T05:01:48;21.20;;;10.32;;
59263;SDS011;45030;42.720;23.344;2023-06-01T05:04:13;21.95;;;10.73;;
59263;SDS011;45030;42.720;23.344;2023-06-01T05:06:38;25.58;;;10.40;;
59263;SDS011;45030;42.720;23.344;2023-06-01T05:09:05;15.20;;;8.48;;
59263;SDS011;45030;42.720;23.344;2023-06-01T05:11:30;13.98;;;7.63;;
59263;SDS011;45030;42.720;23.344;2023-06-01T05:13:55;15.52;;;8.10;;
59263;SDS011;45030;42.720;23.344;2023-06-01T05:16:26;12.43;;;7.80;;
59263;SDS011;45030;42.720;23.344;2023-06-01T05:18:51;16.05;;;8.95;;
59263;SDS011;45030;42.720;23.344;2023-06-01T05:21:16;24.63;;;10.85;;
59263;SDS011;45030;42.720;23.344;2023-06-01T05:23:42;25.23;;;11.77;;
59263;SDS011;45030;42.720;23.344;2023-06-01T05:26:07;29.38;;;11.38;;
59263;SDS011;45030;42.720;23.344;2023-06-01T05:28:32;26.60;;;12.25;;
59263;SDS011;45030;42.720;23.344;2023-06-01T05:30:59;28.38;;;14.43;;
59263;SDS011;45030;42.720;23.344;2023-06-01T05:33:24;31.80;;;15.55;;
59263;SDS011;45030;42.720;23.344;2023-06-01T05:35:50;31.70;;;14.13;;
59263;SDS011;45030;42.720;23.344;2023-06-01T05:38:15;33.95;;;13.07;;
59263;SDS011;45030;42.720;23.344;2023-06-01T05:40:41;31.30;;;13.57;;
59263;SDS011;45030;42.720;23.344;2023-06-01T05:43:06;35.47;;;15.23;;
59263;SDS011;45030;42.720;23.344;2023-06-01T05:45:32;30.92;;;14.10;;
59263;SDS011;45030;42.720;23.344;2023-06-01T05:47:57;24.52;;;13.02;;
59263;SDS011;45030;42.720;23.344;2023-06-01T05:50:23;36.58;;;15.90;;
59263;SDS011;45030;42.720;23.344;2023-06-01T05:52:48;28.65;;;13.50;;
59263;SDS011;45030;42.720;23.344;2023-06-01T05:55:13;32.08;;;15.02;;
59263;SDS011;45030;42.720;23.344;2023-06-01T05:57:39;25.92;;;13.15;;
59263;SDS011;45030;42.720;23.344;2023-06-01T06:00:04;31.20;;;14.70;;
59263;SDS011;45030;42.720;23.344;2023-06-01T06:02:34;35.05;;;15.25;;
59263;SDS011;45030;42.720;23.344;2023-06-01T06:05:00;33.38;;;13.82;;
59263;SDS011;45030;42.720;23.344;2023-06-01T06:07:25;27.90;;;13.48;;
59263;SDS011;45030;42.720;23.344;2023-06-01T06:09:50;32.70;;;14.07;;
59263;SDS011;45030;42.720;23.344;2023-06-01T06:12:15;29.83;;;13.77;;
59263;SDS011;45030;42.720;23.344;2023-06-01T06:14:41;30.42;;;15.75;;
59263;SDS011;45030;42.720;23.344;2023-06-01T06:17:07;28.90;;;14.20;;
59263;SDS011;45030;42.720;23.344;2023-06-01T06:19:32;23.35;;;11.43;;
59263;SDS011;45030;42.720;23.344;2023-06-01T06:21:57;33.72;;;14.82;;
59263;SDS011;45030;42.720;23.344;2023-06-01T06:24:22;26.60;;;12.93;;
59263;SDS011;45030;42.720;23.344;2023-06-01T06:26:48;27.00;;;14.20;;
59263;SDS011;45030;42.720;23.344;2023-06-01T06:29:13;33.33;;;15.63;;
59263;SDS011;45030;42.720;23.344;2023-06-01T06:31:39;37.92;;;17.23;;
59263;SDS011;45030;42.720;23.344;2023-06-01T06:34:04;34.53;;;17.48;;
59263;SDS011;45030;42.720;23.344;2023-06-01T06:36:29;36.05;;;17.65;;
59263;SDS011;45030;42.720;23.344;2023-06-01T06:38:55;36.75;;;17.98;;
59263;SDS011;45030;42.720;23.344;2023-06-01T06:41:20;45.42;;;21.50;;
59263;SDS011;45030;42.720;23.344;2023-06-01T06:43:46;52.33;;;23.25;;
59263;SDS011;45030;42.720;23.344;2023-06-01T06:46:11;46.40;;;22.65;;
59263;SDS011;45030;42.720;23.344;2023-06-01T06:48:36;45.53;;;21.63;;
59263;SDS011;45030;42.720;23.344;2023-06-01T06:51:01;49.70;;;19.77;;
59263;SDS011;45030;42.720;23.344;2023-06-01T06:53:27;39.05;;;18.55;;
59263;SDS011;45030;42.720;23.344;2023-06-01T06:55:52;37.63;;;17.60;;
59263;SDS011;45030;42.720;23.344;2023-06-01T06:58:17;39.50;;;20.52;;
59263;SDS011;45030;42.720;23.344;2023-06-01T07:00:43;36.67;;;18.35;;
59263;SDS011;45030;42.720;23.344;2023-06-01T07:03:08;34.92;;;18.60;;
59263;SDS011;45030;42.720;23.344;2023-06-01T07:05:34;32.78;;;18.15;;
59263;SDS011;45030;42.720;23.344;2023-06-01T07:07:59;33.03;;;16.92;;
59263;SDS011;45030;42.720;23.344;2023-06-01T07:10:25;37.83;;;16.02;;
59263;SDS011;45030;42.720;23.344;2023-06-01T07:12:51;29.83;;;15.52;;
59263;SDS011;45030;42.720;23.344;2023-06-01T07:15:16;28.40;;;15.15;;
59263;SDS011;45030;42.720;23.344;2023-06-01T07:17:41;36.13;;;18.83;;
59263;SDS011;45030;42.720;23.344;2023-06-01T07:20:07;35.80;;;19.67;;
59263;SDS011;45030;42.720;23.344;2023-06-01T07:22:32;34.30;;;18.92;;
59263;SDS011;45030;42.720;23.344;2023-06-01T07:24:58;37.85;;;20.13;;
59263;SDS011;45030;42.720;23.344;2023-06-01T07:27:23;33.88;;;16.98;;
59263;SDS011;45030;42.720;23.344;2023-06-01T07:29:49;34.17;;;17.75;;
59263;SDS011;45030;42.720;23.344;2023-06-01T07:32:19;27.10;;;17.23;;
59263;SDS011;45030;42.720;23.344;2023-06-01T07:34:45;27.37;;;15.93;;
59263;SDS011;45030;42.720;23.344;2023-06-01T07:37:10;29.00;;;17.23;;
59263;SDS011;45030;42.720;23.344;2023-06-01T07:39:35;23.65;;;14.50;;
59263;SDS011;45030;42.720;23.344;2023-06-01T07:42:01;22.23;;;14.18;;
59263;SDS011;45030;42.720;23.344;2023-06-01T07:44:26;27.45;;;15.77;;
59263;SDS011;45030;42.720;23.344;2023-06-01T07:46:52;27.85;;;14.48;;
59263;SDS011;45030;42.720;23.344;2023-06-01T07:49:18;24.47;;;13.63;;
59263;SDS011;45030;42.720;23.344;2023-06-01T07:51:43;27.27;;;13.77;;
59263;SDS011;45030;42.720;23.344;2023-06-01T07:54:08;22.45;;;13.27;;
59263;SDS011;45030;42.720;23.344;2023-06-01T07:56:34;23.83;;;13.55;;
59263;SDS011;45030;42.720;23.344;2023-06-01T07:59:00;27.10;;;13.68;;
59263;SDS011;45030;42.720;23.344;2023-06-01T08:01:25;21.58;;;12.25;;
59263;SDS011;45030;42.720;23.344;2023-06-01T08:03:50;25.02;;;15.07;;
59263;SDS011;45030;42.720;23.344;2023-06-01T08:06:16;20.15;;;11.70;;
59263;SDS011;45030;42.720;23.344;2023-06-01T08:08:41;20.25;;;11.80;;
59263;SDS011;45030;42.720;23.344;2023-06-01T08:11:07;21.98;;;13.00;;
59263;SDS011;45030;42.720;23.344;2023-06-01T08:13:33;24.25;;;12.63;;
59263;SDS011;45030;42.720;23.344;2023-06-01T08:16:01;22.10;;;13.23;;
59263;SDS011;45030;42.720;23.344;2023-06-01T08:18:26;20.23;;;12.40;;
59263;SDS011;45030;42.720;23.344;2023-06-01T08:20:52;17.90;;;10.93;;
59263;SDS011;45030;42.720;23.344;2023-06-01T08:23:17;22.00;;;11.82;;
59263;SDS011;45030;42.720;23.344;2023-06-01T08:25:44;20.42;;;11.05;;
59263;SDS011;45030;42.720;23.344;2023-06-01T08:28:10;16.55;;;10.02;;
59263;SDS011;45030;42.720;23.344;2023-06-01T08:30:35;18.50;;;10.48;;
59263;SDS011;45030;42.720;23.344;2023-06-01T08:33:00;19.70;;;10.90;;
59263;SDS011;45030;42.720;23.344;2023-06-01T08:35:27;15.48;;;9.73;;
59263;SDS011;45030;42.720;23.344;2023-06-01T08:37:53;20.25;;;10.90;;
59263;SDS011;45030;42.720;23.344;2023-06-01T08:40:18;16.60;;;10.57;;
59263;SDS011;45030;42.720;23.344;2023-06-01T08:42:49;18.45;;;10.18;;
59263;SDS011;45030;42.720;23.344;2023-06-01T08:45:20;16.83;;;9.82;;
59263;SDS011;45030;42.720;23.344;2023-06-01T08:47:46;17.23;;;8.60;;
59263;SDS011;45030;42.720;23.344;2023-06-01T08:50:12;18.15;;;9.38;;
59263;SDS011;45030;42.720;23.344;2023-06-01T08:52:38;16.73;;;8.73;;
59263;SDS011;45030;42.720;23.344;2023-06-01T08:55:03;13.10;;;7.10;;
59263;SDS011;45030;42.720;23.344;2023-06-01T08:57:29;12.15;;;6.75;;
59263;SDS011;45030;42.720;23.344;2023-06-01T08:59:55;11.05;;;6.53;;
59263;SDS011;45030;42.720;23.344;2023-06-01T09:02:21;12.13;;;7.13;;
59263;SDS011;45030;42.720;23.344;2023-06-01T09:04:47;11.63;;;6.50;;
59263;SDS011;45030;42.720;23.344;2023-06-01T09:07:12;10.45;;;6.40;;
59263;SDS011;45030;42.720;23.344;2023-06-01T09:09:38;11.48;;;5.78;;
59263;SDS011;45030;42.720;23.344;2023-06-01T09:14:40;11.65;;;6.00;;
59263;SDS011;45030;42.720;23.344;2023-06-01T09:17:05;10.00;;;5.77;;
59263;SDS011;45030;42.720;23.344;2023-06-01T09:19:40;11.00;;;6.47;;
59263;SDS011;45030;42.720;23.344;2023-06-01T09:22:05;12.50;;;6.13;;
59263;SDS011;45030;42.720;23.344;2023-06-01T09:24:31;10.10;;;6.90;;
59263;SDS011;45030;42.720;23.344;2023-06-01T09:26:59;9.90;;;6.17;;
59263;SDS011;45030;42.720;23.344;2023-06-01T09:29:25;9.63;;;6.10;;
59263;SDS011;45030;42.720;23.344;2023-06-01T09:31:51;8.38;;;5.85;;
59263;SDS011;45030;42.720;23.344;2023-06-01T09:34:17;10.13;;;5.97;;
59263;SDS011;45030;42.720;23.344;2023-06-01T09:39:11;7.57;;;4.50;;
59263;SDS011;45030;42.720;23.344;2023-06-01T09:41:44;8.35;;;4.63;;
59263;SDS011;45030;42.720;23.344;2023-06-01T09:44:09;6.45;;;4.78;;
59263;SDS011;45030;42.720;23.344;2023-06-01T09:46:45;8.07;;;5.03;;
59263;SDS011;45030;42.720;23.344;2023-06-01T09:49:10;5.20;;;3.10;;
59263;SDS011;45030;42.720;23.344;2023-06-01T09:51:35;5.80;;;3.37;;
59263;SDS011;45030;42.720;23.344;2023-06-01T09:54:01;7.05;;;4.85;;
59263;SDS011;45030;42.720;23.344;2023-06-01T09:56:27;6.10;;;3.47;;
59263;SDS011;45030;42.720;23.344;2023-06-01T09:58:56;7.20;;;3.60;;
59263;SDS011;45030;42.720;23.344;2023-06-01T10:01:21;4.35;;;2.92;;
59263;SDS011;45030;42.720;23.344;2023-06-01T10:03:46;5.50;;;2.72;;
59263;SDS011;45030;42.720;23.344;2023-06-01T10:06:12;4.45;;;3.10;;
59263;SDS011;45030;42.720;23.344;2023-06-01T10:08:39;6.57;;;3.67;;
59263;SDS011;45030;42.720;23.344;2023-06-01T10:11:07;8.48;;;4.13;;
59263;SDS011;45030;42.720;23.344;2023-06-01T10:13:32;5.93;;;4.30;;
59263;SDS011;45030;42.720;23.344;2023-06-01T10:15:59;5.63;;;3.42;;
59263;SDS011;45030;42.720;23.344;2023-06-01T10:18:25;7.30;;;3.38;;
59263;SDS011;45030;42.720;23.344;2023-06-01T10:20:50;3.85;;;3.08;;
59263;SDS011;45030;42.720;23.344;2023-06-01T10:23:16;5.97;;;3.55;;
59263;SDS011;45030;42.720;23.344;2023-06-01T10:25:42;4.70;;;3.13;;
59263;SDS011;45030;42.720;23.344;2023-06-01T10:28:09;7.13;;;4.43;;
59263;SDS011;45030;42.720;23.344;2023-06-01T10:30:35;8.45;;;4.32;;
59263;SDS011;45030;42.720;23.344;2023-06-01T10:33:01;6.93;;;4.05;;
59263;SDS011;45030;42.720;23.344;2023-06-01T10:40:38;6.13;;;4.00;;
59263;SDS011;45030;42.720;23.344;2023-06-01T10:43:04;8.03;;;4.30;;
59263;SDS011;45030;42.720;23.344;2023-06-01T10:47:59;5.32;;;4.00;;
59263;SDS011;45030;42.720;23.344;2023-06-01T10:50:25;7.50;;;4.60;;
59263;SDS011;45030;42.720;23.344;2023-06-01T10:52:50;6.30;;;3.88;;
59263;SDS011;45030;42.720;23.344;2023-06-01T10:57:52;6.30;;;3.30;;
59263;SDS011;45030;42.720;23.344;2023-06-01T11:00:40;5.32;;;3.28;;
59263;SDS011;45030;42.720;23.344;2023-06-01T11:03:05;7.43;;;3.50;;
59263;SDS011;45030;42.720;23.344;2023-06-01T11:05:46;6.55;;;3.20;;
59263;SDS011;45030;42.720;23.344;2023-06-01T11:13:29;6.60;;;3.72;;
59263;SDS011;45030;42.720;23.344;2023-06-01T11:23:38;7.53;;;3.33;;
59263;SDS011;45030;42.720;23.344;2023-06-01T11:26:04;5.82;;;3.15;;
59263;SDS011;45030;42.720;23.344;2023-06-01T11:28:30;5.30;;;3.05;;
59263;SDS011;45030;42.720;23.344;2023-06-01T11:30:56;6.18;;;2.78;;
59263;SDS011;45030;42.720;23.344;2023-06-01T11:33:23;5.13;;;3.05;;
59263;SDS011;45030;42.720;23.344;2023-06-01T11:35:56;6.82;;;3.00;;
59263;SDS011;45030;42.720;23.344;2023-06-01T12:23:35;3.83;;;1.90;;
59263;SDS011;45030;42.720;23.344;2023-06-01T12:26:00;2.67;;;1.98;;
59263;SDS011;45030;42.720;23.344;2023-06-01T12:28:26;5.55;;;2.42;;
59263;SDS011;45030;42.720;23.344;2023-06-01T12:31:13;4.40;;;2.28;;
59263;SDS011;45030;42.720;23.344;2023-06-01T12:33:39;4.07;;;2.35;;
59263;SDS011;45030;42.720;23.344;2023-06-01T12:36:05;3.60;;;2.00;;
59263;SDS011;45030;42.720;23.344;2023-06-01T12:38:38;3.83;;;2.00;;
59263;SDS011;45030;42.720;23.344;2023-06-01T12:41:13;5.35;;;2.50;;
59263;SDS011;45030;42.720;23.344;2023-06-01T12:43:43;3.67;;;2.10;;
59263;SDS011;45030;42.720;23.344;2023-06-01T12:46:16;3.42;;;2.20;;
59263;SDS011;45030;42.720;23.344;2023-06-01T12:48:43;3.42;;;2.08;;
59263;SDS011;45030;42.720;23.344;2023-06-01T12:51:09;3.53;;;1.88;;
59263;SDS011;45030;42.720;23.344;2023-06-01T12:53:35;2.67;;;1.25;;
59263;SDS011;45030;42.720;23.344;2023-06-01T12:56:00;4.25;;;1.90;;
59263;SDS011;45030;42.720;23.344;2023-06-01T12:58:26;2.93;;;1.50;;
59263;SDS011;45030;42.720;23.344;2023-06-01T13:00:53;2.67;;;1.25;;
59263;SDS011;45030;42.720;23.344;2023-06-01T13:03:18;2.75;;;1.45;;
59263;SDS011;45030;42.720;23.344;2023-06-01T13:05:44;3.42;;;1.60;;
59263;SDS011;45030;42.720;23.344;2023-06-01T13:08:11;4.28;;;2.15;;
59263;SDS011;45030;42.720;23.344;2023-06-01T13:10:36;4.25;;;2.42;;
59263;SDS011;45030;42.720;23.344;2023-06-01T13:13:01;8.30;;;3.17;;
59263;SDS011;45030;42.720;23.344;2023-06-01T13:15:26;6.57;;;3.17;;
59263;SDS011;45030;42.720;23.344;2023-06-01T13:17:51;6.50;;;3.80;;
59263;SDS011;45030;42.720;23.344;2023-06-01T13:20:19;4.93;;;3.00;;
59263;SDS011;45030;42.720;23.344;2023-06-01T13:22:44;4.70;;;3.25;;
59263;SDS011;45030;42.720;23.344;2023-06-01T13:25:10;5.03;;;3.50;;
59263;SDS011;45030;42.720;23.344;2023-06-01T13:27:35;5.23;;;3.17;;
59263;SDS011;45030;42.720;23.344;2023-06-01T13:30:01;4.15;;;3.00;;
59263;SDS011;45030;42.720;23.344;2023-06-01T13:32:26;4.28;;;2.80;;
59263;SDS011;45030;42.720;23.344;2023-06-01T13:34:52;5.03;;;2.97;;
59263;SDS011;45030;42.720;23.344;2023-06-01T13:37:17;4.80;;;3.00;;
59263;SDS011;45030;42.720;23.344;2023-06-01T13:39:43;5.00;;;3.10;;
59263;SDS011;45030;42.720;23.344;2023-06-01T13:42:08;3.58;;;2.60;;
59263;SDS011;45030;42.720;23.344;2023-06-01T13:44:33;5.03;;;2.92;;
59263;SDS011;45030;42.720;23.344;2023-06-01T13:46:58;4.63;;;2.35;;
59263;SDS011;45030;42.720;23.344;2023-06-01T13:49:24;5.40;;;2.77;;
59263;SDS011;45030;42.720;23.344;2023-06-01T13:51:49;3.77;;;2.57;;
59263;SDS011;45030;42.720;23.344;2023-06-01T13:54:14;4.97;;;2.37;;
59263;SDS011;45030;42.720;23.344;2023-06-01T13:56:39;5.18;;;2.80;;
59263;SDS011;45030;42.720;23.344;2023-06-01T13:59:05;4.93;;;2.85;;
59263;SDS011;45030;42.720;23.344;2023-06-01T14:01:30;4.85;;;2.40;;
59263;SDS011;45030;42.720;23.344;2023-06-01T14:03:55;7.22;;;2.88;;
59263;SDS011;45030;42.720;23.344;2023-06-01T14:06:21;6.27;;;2.33;;
59263;SDS011;45030;42.720;23.344;2023-06-01T14:08:46;4.18;;;2.40;;
59263;SDS011;45030;42.720;23.344;2023-06-01T14:11:11;3.15;;;1.92;;
59263;SDS011;45030;42.720;23.344;2023-06-01T14:13:36;4.25;;;2.53;;
59263;SDS011;45030;42.720;23.344;2023-06-01T14:16:02;4.72;;;2.53;;
59263;SDS011;45030;42.720;23.344;2023-06-01T14:18:27;5.15;;;2.13;;
59263;SDS011;45030;42.720;23.344;2023-06-01T14:20:52;4.82;;;2.28;;
59263;SDS011;45030;42.720;23.344;2023-06-01T14:23:17;3.90;;;2.22;;
59263;SDS011;45030;42.720;23.344;2023-06-01T14:25:43;5.63;;;2.72;;
59263;SDS011;45030;42.720;23.344;2023-06-01T14:28:08;3.45;;;2.17;;
59263;SDS011;45030;42.720;23.344;2023-06-01T14:30:33;5.57;;;2.83;;
59263;SDS011;45030;42.720;23.344;2023-06-01T14:32:58;5.35;;;3.08;;
59263;SDS011;45030;42.720;23.344;2023-06-01T14:35:24;4.27;;;2.37;;
59263;SDS011;45030;42.720;23.344;2023-06-01T14:37:51;3.50;;;1.75;;
59263;SDS011;45030;42.720;23.344;2023-06-01T14:40:16;5.55;;;2.40;;
59263;SDS011;45030;42.720;23.344;2023-06-01T14:42:42;4.68;;;2.65;;
59263;SDS011;45030;42.720;23.344;2023-06-01T14:45:07;4.10;;;2.30;;
59263;SDS011;45030;42.720;23.344;2023-06-01T14:47:32;3.72;;;2.20;;
59263;SDS011;45030;42.720;23.344;2023-06-01T14:49:58;5.15;;;2.20;;
59263;SDS011;45030;42.720;23.344;2023-06-01T14:52:23;7.47;;;2.78;;
59263;SDS011;45030;42.720;23.344;2023-06-01T14:54:48;4.38;;;2.10;;
59263;SDS011;45030;42.720;23.344;2023-06-01T14:57:14;4.80;;;2.50;;
59263;SDS011;45030;42.720;23.344;2023-06-01T14:59:39;6.53;;;2.30;;
59263;SDS011;45030;42.720;23.344;2023-06-01T15:02:05;4.63;;;2.75;;
59263;SDS011;45030;42.720;23.344;2023-06-01T15:04:31;4.15;;;2.60;;
59263;SDS011;45030;42.720;23.344;2023-06-01T15:06:58;4.13;;;2.40;;
59263;SDS011;45030;42.720;23.344;2023-06-01T15:09:23;4.68;;;2.28;;
59263;SDS011;45030;42.720;23.344;2023-06-01T15:11:48;3.40;;;2.35;;
59263;SDS011;45030;42.720;23.344;2023-06-01T15:14:14;7.80;;;2.75;;
59263;SDS011;45030;42.720;23.344;2023-06-01T15:16:39;3.80;;;2.53;;
59263;SDS011;45030;42.720;23.344;2023-06-01T15:19:05;4.30;;;2.53;;
59263;SDS011;45030;42.720;23.344;2023-06-01T15:21:30;5.60;;;2.30;;
59263;SDS011;45030;42.720;23.344;2023-06-01T15:23:56;4.97;;;3.00;;
59263;SDS011;45030;42.720;23.344;2023-06-01T15:26:21;3.70;;;2.40;;
59263;SDS011;45030;42.720;23.344;2023-06-01T15:28:46;6.03;;;2.65;;
59263;SDS011;45030;42.720;23.344;2023-06-01T15:31:11;3.80;;;2.50;;
59263;SDS011;45030;42.720;23.344;2023-06-01T15:33:37;4.75;;;2.55;;
59263;SDS011;45030;42.720;23.344;2023-06-01T15:36:02;7.55;;;2.90;;
59263;SDS011;45030;42.720;23.344;2023-06-01T15:38:28;5.25;;;3.17;;